• Join FlightAware (Why Join?)
  • Login
  • US Flag 
05:31PM EDT


 

Airport Tracker/Info


-or-


 

Live Flight TrackerFlight Track Log ✈ N502QS ✈ 29-Aug-2013 ✈ KHPN - KMDW

Flight Track Log - Related Links

Times and Time Zones

All times are in EDT time to prevent confusion due to time zone crossing. See the N502QS flight status page for this flight to view local times or setup timezone preferences in your user account.

Time Position Orientation Groundspeed Altitude Reporting Facility
EDT Latitude Longitude Course Direction KTS MPH feet Rate Location/Type
04:45PM 41.0500 -73.7000 246° West 187 215 1,900  Level New York TRACON
04:46PM 41.0333 -73.7500 246° West 221 254 3,100 2,400 Climbing New York TRACON
04:47PM 41.0167 -73.8500 258° West 264 304 6,800 3,300 Climbing New York TRACON
04:48PM 40.9833 -73.9500 246° West 290 334 9,800 2,640 Climbing New York TRACON
04:49PM 40.9500 -74.0500 246° West 335 386 12,100 2,580 Climbing New York TRACON
04:50PM 40.9500 -74.1833 270° West 389 448 15,000 2,400 Climbing New York TRACON
04:51PM 40.9500 -74.3333 270° West 413 475 17,000 1,260 Climbing New York TRACON
04:51PM 40.9428 -74.4219 264° West 412 474 17,000  Level New York Center
04:52PM 40.9378 -74.5753 268° West 427 491 17,000  Level New York Center
04:53PM 40.9336 -74.7069 268° West 416 479 17,100 840 Climbing New York Center
04:54PM 40.9289 -74.8467 267° West 421 484 18,700 2,040 Climbing New York Center
04:55PM 40.9181 -75.0328 266° West 421 484 21,200 2,340 Climbing New York Center
04:56PM 40.8872 -75.1928 256° West 428 493 23,400 2,100 Climbing New York Center
04:57PM 40.8519 -75.3525 254° West 451 519 25,400 1,740 Climbing New York Center
04:58PM 40.8183 -75.5147 255° West 457 526 26,900 1,620 Climbing New York Center
04:59PM 40.7844 -75.6850 255° West 468 539 28,700 1,500 Climbing New York Center
05:00PM 40.7561 -75.8611 258° West 482 555 30,000 1,500 Climbing New York Center
05:01PM 40.7736 -76.0294 278° West 464 534 31,800 1,860 Climbing New York Center
05:02PM 40.7972 -76.2014 280° West 475 547 33,800 2,100 Climbing New York Center
05:03PM 40.8147 -76.3644 278° West 470 541 36,000 2,160 Climbing New York Center
05:04PM 40.8339 -76.5253 279° West 459 528 38,200 1,860 Climbing New York Center
05:05PM 40.8531 -76.6861 279° West 453 521 39,800 840 Climbing New York Center
05:06PM 40.8719 -76.8497 279° West 448 516 39,900 60 Climbing New York Center
05:07PM 40.8903 -77.0186 278° West 454 522 40,000  Climbing New York Center
05:08PM 40.9086 -77.1825 278° West 454 522 40,000 -60 Level New York Center
05:09PM 40.9242 -77.3158 279° West 454 522 39,900 -60 Descending New York Center
05:11PM 40.9536 -77.5917 278° West 475 547 39,900  Level Cleveland Center
05:12PM 40.9703 -77.7589 278° West 470 541 39,900  Level Cleveland Center
05:13PM 40.9869 -77.9258 278° West 465 535 39,900  Level Cleveland Center
05:14PM 41.0053 -78.0931 278° West 460 529 39,900  Level Cleveland Center
05:15PM 41.0236 -78.2767 278° West 466 536 39,900  Level Cleveland Center
05:16PM 41.0436 -78.4467 279° West 466 536 39,900  Level Cleveland Center
05:17PM 41.0592 -78.6197 277° West 466 536 39,900  Level Cleveland Center
05:18PM 41.0744 -78.7844 277° West 466 536 39,900  Level Cleveland Center
05:19PM 41.0917 -78.9522 278° West 461 531 39,900  Level Cleveland Center
05:20PM 41.1064 -79.1197 277° West 461 531 39,900  Level Cleveland Center
05:21PM 41.1208 -79.2850 277° West 461 531 39,900  Level Cleveland Center
05:22PM 41.1353 -79.4500 277° West 461 531 39,900  Level Cleveland Center
05:23PM 41.1492 -79.6042 277° West 461 531 39,900  Level Cleveland Center
05:24PM 41.1608 -79.7722 275° West 466 536 39,900  Level Cleveland Center
05:25PM 41.1764 -79.9375 277° West 461 531 39,900  Level Cleveland Center
05:26PM 41.1919 -80.0975 277° West 455 524 39,900  Level Cleveland Center
05:27PM 41.2050 -80.2658 276° West 455 524 39,900  Level Cleveland Center
05:28PM 41.2200 -80.4478 276° West 455 524 39,900  Level Cleveland Center
05:29PM 41.2303 -80.6136 275° West 455 524 39,900  Level Cleveland Center
05:30PM 41.2428 -80.7819 276° West 460 529 39,900  Level Cleveland Center
05:31PM 41.2547 -80.9478 276° West 465 535 39,900  Level Cleveland Center
05:32PM 41.2686 -81.1164 276° West 465 535 39,900  Level Cleveland Center
05:33PM 41.2783 -81.2656 275° West 460 529 39,900  Level Cleveland Center
05:34PM 41.2958 -81.4372 278° West 466 536 40,000  Climbing Cleveland Center
05:35PM 41.3050 -81.6086 274° West 466 536 39,900 720 Descending Cleveland Center
05:36PM 41.3158 -81.7747 275° West 466 536 41,500 1,500 Climbing Cleveland Center
05:37PM 41.3286 -81.9381 276° West 460 529 42,900 660 Climbing Cleveland Center
05:38PM 41.3389 -82.1264 274° West 463 533 42,900  Level Cleveland Center
05:39PM 41.3489 -82.2925 275° West 468 539 43,000  Climbing Cleveland Center
05:40PM 41.3589 -82.4533 275° West 445 512 42,900 -60 Descending Cleveland Center
05:41PM 41.3669 -82.5975 274° West 440 506 42,900  Level Cleveland Center
05:42PM 41.3764 -82.7636 274° West 440 506 42,900  Level Cleveland Center
05:43PM 41.3856 -82.9272 274° West 445 512 42,900  Level Cleveland Center
05:44PM 41.3967 -83.0883 275° West 445 512 42,900  Level Cleveland Center
05:45PM 41.4031 -83.2739 273° West 445 512 42,900 -840 Level Cleveland Center
05:46PM 41.4136 -83.4350 275° West 445 512 41,300 -1,680 Descending Cleveland Center
05:47PM 41.4197 -83.6014 273° West 445 512 39,600 -1,800 Descending Cleveland Center
05:48PM 41.4297 -83.7764 274° West 450 518 37,800 -1,800 Descending Cleveland Center
05:49PM 41.4394 -83.9486 274° West 462 532 36,100 -900 Descending Cleveland Center
05:50PM 41.4475 -84.0906 274° West 473 544 36,000 -120 Descending Cleveland Center
05:51PM 41.4569 -84.2575 274° West 486 559 35,900 -1,320 Descending Chicago Center
05:52PM 41.4656 -84.4361 274° West 485 558 33,600 -2,340 Descending Chicago Center
05:53PM 41.4731 -84.6089 273° West 471 542 31,100 -1,740 Descending Chicago Center
05:54PM 41.4828 -84.8228 274° West 480 552 30,000 -1,260 Descending Chicago Center
05:55PM 41.4892 -84.9992 273° West 479 551 28,600 -1,500 Descending Chicago Center
05:56PM 41.4950 -85.1617 273° West 445 512 27,000 -1,560 Descending Chicago Center
05:57PM 41.4992 -85.3214 272° West 428 493 25,400 -1,500 Descending Chicago Center
05:58PM 41.5053 -85.4858 273° West 430 495 23,900 -1,680 Descending Chicago Center
05:59PM 41.5111 -85.6431 273° West 422 486 21,900 -2,160 Descending Chicago Center
06:00PM 41.5167 -85.7953 273° West 413 475 19,500 -2,220 Descending Chicago Center
06:01PM 41.5217 -85.9478 273° West 412 474 17,400 -2,280 Descending Chicago Center
06:02PM 41.5239 -86.1231 271° West 397 457 14,800 -2,340 Descending Chicago Center
06:03PM 41.5225 -86.2669 269° West 389 448 12,600 -2,040 Descending Chicago Center
06:04PM 41.5222 -86.4072 270° West 381 438 10,700 -1,260 Descending Chicago Center
06:05PM 41.5206 -86.5469 269° West 377 434 10,000 -360 Descending Chicago Center
06:06PM 41.5194 -86.6819 269° West 361 415 10,000 -420 Level Chicago Center
06:07PM 41.5189 -86.8075 270° West 299 344 9,200 -900 Descending Chicago Center
06:08PM 41.5178 -86.9133 269° West 288 331 8,200 -960 Descending Chicago Center
06:10PM 41.5181 -87.0144 270° West 278 320 7,300 -960 Descending Chicago Center
06:11PM 41.5158 -87.1167 268° West 274 315 6,300 -780 Descending Chicago Center
06:12PM 41.5247 -87.2156 277° West 270 311 5,800 -1,140 Descending Chicago Center
06:13PM 41.5394 -87.3339 279° West 270 311 4,000 -900 Descending Chicago Center
06:14PM 41.5508 -87.4303 279° West 267 307 4,000  Level Chicago Center
06:15PM 41.5639 -87.5256 280° West 265 305 4,000  Level Chicago Center
06:16PM 41.5753 -87.6217 279° West 265 305 4,000  Level Chicago Center
06:17PM 41.5872 -87.7378 278° West 265 305 4,000 -240 Level Chicago Center
06:18PM 41.5986 -87.8336 279° West 265 305 3,600 -480 Descending Chicago Center
06:19PM 41.6319 -87.9094 300° West 260 299 3,000 -300 Descending Chicago Center
06:20PM 41.6817 -87.8856 20° North 215 247 3,000 -300 Level Chicago Center
06:21PM 41.7156 -87.8428 43° Northeast 188 216 2,400 -780 Descending Chicago Center
06:22PM 41.7533 -87.7931 44° Northeast 170 196 1,400 -720 Descending Chicago Center
06:23PM 41.7775 -87.7622 44° Northeast 160 184 1,000 -420 Descending Chicago Center